Time;durP1;ratioP1;P1;durP2;ratioP2;P2;SDS_P1;SDS_P2;PMS_P1;PMS_P2;Temp;Humidity;BMP_temperature;BMP_pressure;BME280_temperature;BME280_humidity;BME280_pressure;Samples;Min_cycle;Max_cycle;Signal;HPM_P1;HPM_P2
2022/03/18 00:00:40;;;;;;;17.27;6.20;;;;;;;1.66;76.72;103693.72;4976987;28;20023;-73
2022/03/18 00:03:05;;;;;;;18.42;5.55;;;;;;;1.67;76.91;103704.34;4976473;28;20085;-73
2022/03/18 00:05:32;;;;;;;15.52;6.07;;;;;;;1.66;76.64;103702.53;4983844;28;20022;-73
2022/03/18 00:07:57;;;;;;;19.13;5.85;;;;;;;1.64;76.91;103709.59;4989557;28;20034;-73
2022/03/18 00:10:23;;;;;;;21.25;7.97;;;;;;;1.60;76.47;103718.41;4972410;28;20099;-73
2022/03/18 00:12:52;;;;;;;25.48;6.63;;;;;;;1.55;76.04;103720.09;4984107;28;20026;-73
2022/03/18 00:15:17;;;;;;;16.17;5.20;;;;;;;1.50;76.35;103716.53;4979313;28;20077;-73
2022/03/18 00:17:43;;;;;;;27.13;6.22;;;;;;;1.43;76.23;103718.19;4980257;28;20031;-73
2022/03/18 00:20:10;;;;;;;19.38;5.65;;;;;;;1.38;76.43;103719.94;4985752;28;20060;-73
2022/03/18 00:22:36;;;;;;;16.98;5.38;;;;;;;1.33;76.59;103725.19;4979194;28;20033;-73
2022/03/18 00:25:02;;;;;;;17.42;6.18;;;;;;;1.28;76.38;103729.53;4975856;28;20463;-73
2022/03/18 00:27:28;;;;;;;20.02;6.93;;;;;;;1.22;76.78;103726.81;4973629;28;20037;-73
2022/03/18 00:29:54;;;;;;;18.48;5.05;;;;;;;1.19;76.97;103718.81;4975217;28;20031;-73
2022/03/18 00:32:20;;;;;;;20.15;6.40;;;;;;;1.17;76.95;103710.84;4988627;28;20030;-73
2022/03/18 00:34:46;;;;;;;18.00;6.03;;;;;;;1.14;76.77;103712.56;4979797;28;20540;-73
2022/03/18 00:37:11;;;;;;;17.33;5.65;;;;;;;1.09;77.05;103720.44;4982038;28;20027;-73
2022/03/18 00:39:37;;;;;;;18.25;6.18;;;;;;;1.10;77.30;103719.59;4977072;28;20050;-73
2022/03/18 00:42:03;;;;;;;17.00;5.32;;;;;;;1.12;77.12;103724.91;4970152;28;20035;-73
2022/03/18 00:44:28;;;;;;;16.77;5.80;;;;;;;1.10;76.99;103727.53;4983452;28;20037;-73
2022/03/18 00:46:53;;;;;;;19.42;6.07;;;;;;;1.06;77.45;103730.13;4983442;28;20139;-72
2022/03/18 00:52:05;;;;;;;17.13;5.68;;;;;;;1.04;77.85;103738.94;4986739;28;20072;-72
2022/03/18 00:54:31;;;;;;;21.08;6.10;;;;;;;1.00;77.51;103746.81;4987949;28;20398;-72
2022/03/18 00:56:56;;;;;;;19.10;6.95;;;;;;;0.95;77.94;103743.22;4978987;28;20106;-73
2022/03/18 00:59:21;;;;;;;24.95;9.45;;;;;;;0.89;77.87;103749.31;4986962;28;20509;-72
2022/03/18 01:01:46;;;;;;;25.23;8.52;;;;;;;0.84;77.89;103751.03;4980836;28;20117;-72
2022/03/18 01:04:12;;;;;;;18.95;6.30;;;;;;;0.80;77.91;103750.06;4977908;28;20410;-72
2022/03/18 01:06:37;;;;;;;18.77;6.40;;;;;;;0.77;77.76;103751.78;4982768;28;20057;-72
2022/03/18 01:09:03;;;;;;;21.05;6.18;;;;;;;0.76;77.75;103756.22;4980521;28;20549;-72
2022/03/18 01:11:29;;;;;;;20.90;6.85;;;;;;;0.71;77.86;103764.94;4976810;28;21356;-72
2022/03/18 01:13:55;;;;;;;18.90;5.72;;;;;;;0.66;77.28;103760.47;4977940;28;20054;-72
2022/03/18 01:16:20;;;;;;;18.55;5.80;;;;;;;0.64;77.65;103761.31;4984074;28;20425;-72
2022/03/18 01:18:45;;;;;;;22.33;6.57;;;;;;;0.63;77.82;103762.16;4977319;28;20035;-72
2022/03/18 01:21:10;;;;;;;15.73;5.45;;;;;;;0.62;77.66;103757.75;4976574;28;20439;-72
2022/03/18 01:23:36;;;;;;;24.17;6.45;;;;;;;0.58;77.59;103759.44;4982824;28;20061;-73
2022/03/18 01:26:01;;;;;;;19.40;6.90;;;;;;;0.52;78.19;103754.94;4987810;28;20038;-73
2022/03/18 01:28:30;;;;;;;16.05;6.30;;;;;;;0.49;77.70;103760.19;4983572;28;20065;-73
2022/03/18 01:30:55;;;;;;;20.35;5.82;;;;;;;0.46;77.91;103754.84;4986025;28;20097;-73
2022/03/18 01:33:20;;;;;;;17.02;5.80;;;;;;;0.47;77.28;103755.72;4981821;28;20112;-73
2022/03/18 01:35:46;;;;;;;17.35;6.10;;;;;;;0.46;78.35;103751.34;4983302;28;20037;-73
2022/03/18 01:38:11;;;;;;;20.85;6.55;;;;;;;0.42;78.09;103746.84;4985094;28;20038;-72
2022/03/18 01:40:36;;;;;;;17.75;6.38;;;;;;;0.42;78.45;103752.13;4980216;28;20030;-72
2022/03/18 01:43:02;;;;;;;19.38;6.28;;;;;;;0.44;78.22;103748.66;4980956;28;20030;-72
2022/03/18 01:45:27;;;;;;;19.95;6.80;;;;;;;0.46;78.25;103757.50;4988343;28;20038;-72
2022/03/18 01:47:53;;;;;;;19.08;7.05;;;;;;;0.43;78.10;103760.09;4982250;28;20037;-72
2022/03/18 01:50:18;;;;;;;19.83;6.78;;;;;;;0.39;78.80;103763.56;4980488;28;20050;-72
2022/03/18 01:52:45;;;;;;;18.63;6.53;;;;;;;0.37;78.23;103760.00;4982219;28;20019;-72
2022/03/18 01:55:10;;;;;;;21.83;6.97;;;;;;;0.36;78.17;103762.63;4985702;28;20417;-72
2022/03/18 01:57:36;;;;;;;34.25;6.25;;;;;;;0.36;78.57;103762.63;4976016;28;20051;-72
2022/03/18 02:00:04;;;;;;;18.13;5.53;;;;;;;0.35;78.60;103759.06;4983056;28;20018;-72
2022/03/18 02:02:29;;;;;;;17.90;5.95;;;;;;;0.38;78.45;103747.66;4979796;28;20158;-72
2022/03/18 02:04:56;;;;;;;18.60;6.00;;;;;;;0.37;78.66;103754.72;4983654;28;20469;-72
2022/03/18 02:07:21;;;;;;;19.83;6.70;;;;;;;0.41;78.98;103768.88;4979178;28;20026;-72
2022/03/18 02:09:46;;;;;;;20.58;6.88;;;;;;;0.40;78.50;103760.06;4985743;28;20160;-72
2022/03/18 02:12:12;;;;;;;18.35;6.32;;;;;;;0.40;78.74;103772.41;4978372;28;20038;-72
2022/03/18 02:14:43;;;;;;;17.00;5.47;;;;;;;0.41;79.18;103772.44;4982945;28;20031;-72
2022/03/18 02:17:12;;;;;;;20.77;8.00;;;;;;;0.47;79.26;103772.53;4978685;28;20509;-72
2022/03/18 02:19:39;;;;;;;20.10;7.78;;;;;;;0.50;78.45;103777.84;4979478;28;20514;-72
2022/03/18 02:22:10;;;;;;;20.15;7.35;;;;;;;0.48;78.47;103776.03;4973826;28;20110;-72
2022/03/18 02:24:38;;;;;;;19.42;7.10;;;;;;;0.42;77.87;103775.97;4980391;28;20486;-72
2022/03/18 02:27:03;;;;;;;22.77;8.25;;;;;;;0.42;78.33;103773.31;4988212;28;20033;-72
2022/03/18 02:29:29;;;;;;;19.90;8.35;;;;;;;0.39;77.80;103774.13;4982060;28;20490;-72
2022/03/18 02:31:54;;;;;;;20.08;7.50;;;;;;;0.39;77.75;103766.19;4980329;28;20435;-72
2022/03/18 02:34:20;;;;;;;26.10;7.75;;;;;;;0.38;78.77;103768.81;4975475;28;20053;-72
2022/03/18 02:36:45;;;;;;;19.35;6.47;;;;;;;0.34;78.84;103775.84;4974056;28;20088;-72
2022/03/18 02:39:11;;;;;;;17.70;6.32;;;;;;;0.34;78.71;103789.94;4977769;28;20081;-72
2022/03/18 02:41:36;;;;;;;18.92;6.25;;;;;;;0.34;78.84;103782.00;4986863;28;20044;-72
2022/03/18 02:44:01;;;;;;;21.45;7.22;;;;;;;0.32;78.87;103774.91;4987647;28;20034;-72
2022/03/18 02:46:26;;;;;;;17.67;6.55;;;;;;;0.30;79.21;103788.09;4989067;28;20030;-72
2022/03/18 02:48:52;;;;;;;17.35;6.40;;;;;;;0.29;77.93;103791.63;4981159;28;20033;-72
2022/03/18 02:51:18;;;;;;;18.13;6.78;;;;;;;0.28;78.62;103787.19;4980555;28;20023;-72
2022/03/18 02:53:43;;;;;;;20.80;7.28;;;;;;;0.26;79.07;103786.25;4976882;28;20788;-72
2022/03/18 02:56:09;;;;;;;19.00;6.35;;;;;;;0.24;77.73;103795.94;4978692;28;20041;-72
2022/03/18 02:58:35;;;;;;;19.85;6.88;;;;;;;0.26;77.38;103783.63;4981391;28;20372;-72
2022/03/18 03:01:04;;;;;;;16.63;6.45;;;;;;;0.24;78.87;103795.94;4984059;28;20027;-72
2022/03/18 03:03:29;;;;;;;18.33;6.63;;;;;;;0.19;78.87;103804.66;4982006;28;20058;-72
2022/03/18 03:08:40;;;;;;;22.65;7.28;;;;;;;0.11;78.81;103807.16;4973291;28;20113;-72
2022/03/18 03:11:06;;;;;;;19.75;5.82;;;;;;;0.07;79.09;103807.97;4979217;28;20018;-72
2022/03/18 03:13:32;;;;;;;20.10;6.25;;;;;;;0.00;79.64;103814.91;4976822;28;20042;-72
2022/03/18 03:15:58;;;;;;;18.65;6.35;;;;;;;-0.05;79.80;103825.38;4980991;28;20023;-72
2022/03/18 03:18:23;;;;;;;19.38;6.10;;;;;;;-0.09;79.29;103822.66;4980524;28;20026;-72
2022/03/18 03:20:49;;;;;;;20.85;7.05;;;;;;;-0.12;79.31;103815.53;4983183;28;20482;-72
2022/03/18 03:23:15;;;;;;;21.52;8.18;;;;;;;-0.15;79.16;103815.50;4977102;28;20462;-72
2022/03/18 03:25:40;;;;;;;17.63;5.68;;;;;;;-0.18;79.58;103818.06;4978057;28;20039;-73
2022/03/18 03:28:05;;;;;;;16.60;5.90;;;;;;;-0.23;79.63;103817.13;4981590;28;20038;-73
2022/03/18 03:30:31;;;;;;;17.98;5.50;;;;;;;-0.25;79.72;103822.38;4974836;28;20434;-72
2022/03/18 03:32:56;;;;;;;20.77;7.03;;;;;;;-0.22;79.40;103832.09;4972697;28;20038;-72
2022/03/18 03:35:22;;;;;;;19.00;7.35;;;;;;;-0.21;79.77;103826.81;4980269;28;20085;-72
2022/03/18 03:37:47;;;;;;;16.83;6.07;;;;;;;-0.22;79.73;103826.81;4975418;28;20022;-72
2022/03/18 03:40:13;;;;;;;21.58;6.45;;;;;;;-0.23;79.81;103819.75;4987819;28;20084;-72
2022/03/18 03:42:43;;;;;;;18.25;5.82;;;;;;;-0.24;80.18;103828.53;4976414;28;20427;-72
2022/03/18 03:45:10;;;;;;;19.45;6.70;;;;;;;-0.25;80.14;103843.50;4985865;28;20034;-72
2022/03/18 03:47:40;;;;;;;17.90;6.55;;;;;;;-0.23;79.76;103841.78;4981837;28;20398;-72
2022/03/18 03:50:07;;;;;;;17.77;6.25;;;;;;;-0.22;79.25;103845.31;4973401;28;20433;-72
2022/03/18 03:52:34;;;;;;;20.67;6.68;;;;;;;-0.21;78.95;103839.16;4980838;28;20038;-72
2022/03/18 03:55:00;;;;;;;21.73;6.93;;;;;;;-0.23;79.81;103841.78;4984583;28;20031;-72
2022/03/18 03:57:25;;;;;;;17.25;6.82;;;;;;;-0.22;79.40;103834.72;4979031;28;20490;-72
2022/03/18 03:59:50;;;;;;;16.67;6.22;;;;;;;-0.23;79.45;103847.06;4974717;28;20385;-72
2022/03/18 04:02:16;;;;;;;21.60;8.00;;;;;;;-0.27;79.42;103855.78;4980131;28;20466;-72
2022/03/18 04:04:41;;;;;;;20.88;6.53;;;;;;;-0.27;79.86;103860.19;4984670;28;20026;-72
2022/03/18 04:07:08;;;;;;;22.45;6.75;;;;;;;-0.29;80.20;103861.88;4986427;28;20034;-72
2022/03/18 04:09:33;;;;;;;18.60;6.50;;;;;;;-0.32;79.93;103878.59;4989135;28;20375;-72
2022/03/18 04:11:58;;;;;;;19.13;6.43;;;;;;;-0.34;80.05;103875.00;4985015;28;20041;-72
2022/03/18 04:14:23;;;;;;;21.80;7.10;;;;;;;-0.37;79.77;103870.59;4988834;28;20032;-72
2022/03/18 04:16:49;;;;;;;18.92;7.05;;;;;;;-0.37;79.83;103873.22;4986403;28;20027;-73
2022/03/18 04:19:14;;;;;;;21.10;6.60;;;;;;;-0.40;79.91;103881.06;4991181;28;20026;-73
2022/03/18 04:21:39;;;;;;;25.63;7.22;;;;;;;-0.41;79.84;103884.59;4994413;28;20022;-73
2022/03/18 04:24:05;;;;;;;21.55;9.10;;;;;;;-0.44;79.97;103879.22;4992635;28;20042;-73
2022/03/18 04:26:30;;;;;;;25.27;11.50;;;;;;;-0.48;80.01;103887.94;4994824;28;20379;-73
2022/03/18 04:28:56;;;;;;;28.35;9.90;;;;;;;-0.50;79.88;103894.94;4984774;28;20069;-72
2022/03/18 04:31:21;;;;;;;22.17;8.20;;;;;;;-0.50;80.23;103894.03;4984031;28;20034;-72
2022/03/18 04:33:46;;;;;;;25.13;7.88;;;;;;;-0.49;79.39;103894.06;4991415;28;20030;-72
2022/03/18 04:36:12;;;;;;;20.58;8.48;;;;;;;-0.48;79.87;103897.59;4986341;28;20039;-72
2022/03/18 04:38:37;;;;;;;19.63;7.50;;;;;;;-0.51;80.08;103901.09;4983890;28;20566;-72
2022/03/18 04:41:03;;;;;;;19.42;6.88;;;;;;;-0.56;79.47;103905.38;4972938;28;20034;-72
2022/03/18 04:43:28;;;;;;;18.90;6.63;;;;;;;-0.56;78.80;103908.91;4979939;28;20070;-72
2022/03/18 04:45:54;;;;;;;18.38;7.05;;;;;;;-0.51;78.81;103908.09;4985308;28;20032;-72
2022/03/18 04:48:19;;;;;;;21.23;7.65;;;;;;;-0.51;79.89;103906.38;4979724;28;20066;-72
2022/03/18 04:50:44;;;;;;;19.45;7.47;;;;;;;-0.52;80.03;103896.66;4986669;28;20037;-72
2022/03/18 04:53:10;;;;;;;25.55;7.30;;;;;;;-0.53;79.70;103905.44;4989718;28;20104;-72
2022/03/18 04:55:35;;;;;;;18.88;7.50;;;;;;;-0.57;79.64;103903.56;4983310;28;20065;-72
2022/03/18 04:58:00;;;;;;;23.65;7.43;;;;;;;-0.59;79.52;103911.47;4983165;28;20034;-72
2022/03/18 05:00:26;;;;;;;29.63;7.47;;;;;;;-0.60;80.22;103914.97;4979214;28;20061;-72
2022/03/18 05:02:51;;;;;;;23.42;8.00;;;;;;;-0.60;79.94;103912.34;4983890;28;20031;-72
2022/03/18 05:05:19;;;;;;;20.95;7.20;;;;;;;-0.61;80.00;103918.47;4988683;28;20474;-72
2022/03/18 05:07:49;;;;;;;21.63;7.80;;;;;;;-0.58;79.87;103913.25;4982813;28;20690;-72
2022/03/18 05:10:15;;;;;;;21.15;7.38;;;;;;;-0.59;79.66;103921.16;4983012;28;20490;-72
2022/03/18 05:12:40;;;;;;;20.23;6.68;;;;;;;-0.63;80.11;103930.75;4986003;28;20116;-72
2022/03/18 05:15:10;;;;;;;21.52;7.32;;;;;;;-0.65;79.89;103927.19;4982573;28;20038;-72
2022/03/18 05:17:36;;;;;;;21.70;6.65;;;;;;;-0.63;80.24;103929.84;4984292;28;20034;-72
2022/03/18 05:20:04;;;;;;;22.42;7.35;;;;;;;-0.64;80.45;103939.53;4988076;28;20314;-72
2022/03/18 05:22:30;;;;;;;22.00;7.47;;;;;;;-0.60;80.52;103935.22;4981144;28;20027;-72
2022/03/18 05:24:56;;;;;;;20.42;6.43;;;;;;;-0.62;79.98;103942.22;4979720;28;20146;-72
2022/03/18 05:27:22;;;;;;;19.48;6.70;;;;;;;-0.63;80.61;103941.34;4989048;28;20414;-72
2022/03/18 05:29:47;;;;;;;19.17;7.03;;;;;;;-0.63;80.04;103941.34;4973916;28;20134;-72
2022/03/18 05:32:12;;;;;;;19.73;7.15;;;;;;;-0.62;79.64;103942.22;4974828;28;20030;-72
2022/03/18 05:34:37;;;;;;;22.50;7.65;;;;;;;-0.61;80.29;103944.00;4980403;28;20045;-73
2022/03/18 05:37:05;;;;;;;17.40;6.22;;;;;;;-0.63;79.74;103945.69;4986888;28;20079;-73
2022/03/18 05:39:31;;;;;;;20.35;7.03;;;;;;;-0.62;79.92;103942.22;4980251;28;20030;-73
2022/03/18 05:41:57;;;;;;;21.52;6.95;;;;;;;-0.61;80.17;103949.28;4984981;28;20482;-73
2022/03/18 05:44:22;;;;;;;21.05;7.35;;;;;;;-0.63;80.36;103951.91;4987131;28;20026;-73
2022/03/18 05:46:47;;;;;;;17.77;6.05;;;;;;;-0.61;80.50;103949.28;4978434;28;20026;-73
2022/03/18 05:49:14;;;;;;;18.67;6.97;;;;;;;-0.61;80.55;103941.38;4979592;28;20483;-73
2022/03/18 05:51:39;;;;;;;20.85;7.57;;;;;;;-0.64;81.09;103938.66;4977980;28;20054;-73
2022/03/18 05:54:05;;;;;;;21.20;7.38;;;;;;;-0.64;80.98;103939.53;4985593;28;20481;-73
2022/03/18 05:59:15;;;;;;;20.08;6.32;;;;;;;-0.56;80.87;103945.00;4984681;28;20129;-73
2022/03/18 06:01:41;;;;;;;20.83;6.55;;;;;;;-0.51;80.84;103960.94;4975180;28;20041;-73
2022/03/18 06:04:10;;;;;;;19.60;7.47;;;;;;;-0.50;81.38;103966.25;4977959;28;20424;-73
2022/03/18 06:06:36;;;;;;;20.92;7.55;;;;;;;-0.47;81.06;103968.09;4985570;28;20018;-73
2022/03/18 06:11:54;;;;;;;18.77;7.22;;;;;;;-0.40;79.97;103965.63;4982670;28;20103;-73
2022/03/18 06:14:22;;;;;;;16.98;6.57;;;;;;;-0.38;79.91;103973.56;4977286;28;20062;-73
2022/03/18 06:16:48;;;;;;;20.38;6.60;;;;;;;-0.36;79.15;103978.03;4978214;28;20027;-73
2022/03/18 06:19:18;;;;;;;16.38;5.72;;;;;;;-0.32;79.08;103980.75;4973583;28;20030;-73
2022/03/18 06:21:44;;;;;;;21.10;7.30;;;;;;;-0.28;78.68;103982.63;4985866;28;20532;-73
2022/03/18 06:24:10;;;;;;;20.70;8.10;;;;;;;-0.23;79.56;103988.91;4979081;28;20105;-73
2022/03/18 06:26:36;;;;;;;19.98;7.40;;;;;;;-0.18;79.31;103992.53;4981872;28;20526;-73
2022/03/18 06:29:02;;;;;;;27.15;6.88;;;;;;;-0.15;79.22;104003.19;4976499;28;20031;-73
2022/03/18 06:31:27;;;;;;;20.15;7.70;;;;;;;-0.11;79.59;103997.09;4975081;28;20045;-73
2022/03/18 06:33:53;;;;;;;21.85;6.80;;;;;;;-0.07;79.83;104001.63;4981838;28;20022;-72
2022/03/18 06:36:18;;;;;;;21.52;7.78;;;;;;;-0.03;78.94;104002.56;4986956;28;20113;-72
2022/03/18 06:38:43;;;;;;;20.67;7.25;;;;;;;-0.03;78.58;103992.91;4984200;28;20032;-72
2022/03/18 06:41:09;;;;;;;22.45;7.35;;;;;;;0.02;79.34;104000.03;4978370;28;20487;-72
2022/03/18 06:43:34;;;;;;;19.45;7.40;;;;;;;0.05;80.09;104000.09;4978401;28;20026;-73
2022/03/18 06:45:59;;;;;;;26.33;8.07;;;;;;;0.11;79.85;104008.16;4988204;28;20023;-73
2022/03/18 06:48:25;;;;;;;19.10;7.50;;;;;;;0.18;80.25;104010.09;4982740;28;20392;-72
2022/03/18 06:50:50;;;;;;;26.13;8.38;;;;;;;0.25;80.33;104016.38;4988867;28;20053;-73
2022/03/18 06:53:16;;;;;;;20.23;6.95;;;;;;;0.32;80.74;104020.94;4987614;28;20470;-73
2022/03/18 06:55:41;;;;;;;19.48;7.70;;;;;;;0.39;80.72;104016.69;4987247;28;20038;-73
2022/03/18 06:58:06;;;;;;;24.88;8.60;;;;;;;0.44;80.04;104023.84;4982682;28;20034;-73
2022/03/18 07:00:31;;;;;;;25.98;7.47;;;;;;;0.51;79.95;104027.50;4983804;28;20118;-73
2022/03/18 07:02:57;;;;;;;23.02;8.35;;;;;;;0.57;79.96;104032.03;4991342;28;20474;-73
2022/03/18 07:05:22;;;;;;;23.67;8.77;;;;;;;0.66;80.43;104025.16;4982420;28;20050;-73
2022/03/18 07:07:50;;;;;;;21.15;7.38;;;;;;;0.74;80.24;104014.72;4975236;28;20038;-73
2022/03/18 07:10:16;;;;;;;22.60;8.70;;;;;;;0.83;81.08;104028.13;4978566;28;20068;-73
2022/03/18 07:12:42;;;;;;;21.17;7.95;;;;;;;0.94;81.47;104024.78;4980966;28;20034;-73
2022/03/18 07:15:08;;;;;;;23.25;8.50;;;;;;;1.03;81.82;104033.78;4985619;28;20026;-73
2022/03/18 07:20:17;;;;;;;22.83;9.40;;;;;;;1.28;82.79;104031.56;4982662;28;20046;-73
2022/03/18 07:22:42;;;;;;;22.50;8.55;;;;;;;1.36;81.99;104031.69;4981498;28;20038;-73
2022/03/18 07:25:08;;;;;;;25.02;10.02;;;;;;;1.45;82.28;104031.88;4972728;28;20042;-73
2022/03/18 07:27:33;;;;;;;23.75;9.85;;;;;;;1.54;81.80;104036.44;4979456;28;20113;-73
2022/03/18 07:29:59;;;;;;;26.13;11.32;;;;;;;1.67;83.69;104034.84;4979959;28;20018;-73
2022/03/18 07:32:24;;;;;;;22.95;10.27;;;;;;;1.78;83.53;104035.03;4970684;28;20609;-73
2022/03/18 07:34:49;;;;;;;25.90;9.65;;;;;;;1.90;83.83;104037.84;4972333;28;20042;-73
2022/03/18 07:37:15;;;;;;;24.95;10.85;;;;;;;2.03;84.10;104045.09;4977158;28;20018;-74
2022/03/18 07:39:40;;;;;;;23.77;9.32;;;;;;;2.18;84.69;104043.53;4988624;28;20032;-73
2022/03/18 07:42:06;;;;;;;25.65;9.82;;;;;;;2.30;84.36;104056.06;4989932;28;20033;-73
2022/03/18 07:44:31;;;;;;;29.60;10.07;;;;;;;2.47;84.49;104058.94;4977266;28;20030;-73
2022/03/18 07:46:56;;;;;;;22.83;10.05;;;;;;;2.56;84.57;104064.38;4972562;28;20049;-73
2022/03/18 07:49:21;;;;;;;25.38;10.02;;;;;;;2.71;84.30;104072.53;4969090;28;20034;-73
2022/03/18 07:51:47;;;;;;;22.48;8.98;;;;;;;2.84;83.86;104073.56;4968585;28;20053;-73
2022/03/18 07:54:13;;;;;;;29.65;10.65;;;;;;;2.94;83.90;104074.53;4971270;28;20042;-73
2022/03/18 07:56:38;;;;;;;24.42;8.52;;;;;;;3.08;82.84;104080.00;4968347;28;20043;-73
2022/03/18 07:59:04;;;;;;;22.83;10.02;;;;;;;3.18;83.28;104080.97;4969763;28;20030;-73
2022/03/18 08:01:29;;;;;;;22.90;8.18;;;;;;;3.27;82.51;104081.09;4952365;28;20134;-73
2022/03/18 08:03:54;;;;;;;26.52;9.90;;;;;;;3.42;82.85;104083.88;4970919;28;20026;-74
2022/03/18 08:06:20;;;;;;;23.38;9.10;;;;;;;3.56;82.08;104078.69;4970929;28;20438;-74
2022/03/18 08:08:45;;;;;;;25.48;9.05;;;;;;;3.69;80.98;104085.00;4970034;28;20117;-74
2022/03/18 08:11:11;;;;;;;22.30;9.50;;;;;;;3.76;80.87;104086.78;4970939;28;20689;-74
2022/03/18 08:13:37;;;;;;;23.30;9.35;;;;;;;3.83;81.16;104088.63;4969391;28;20053;-74
2022/03/18 08:16:02;;;;;;;26.38;8.63;;;;;;;3.91;80.65;104090.44;4968109;28;20538;-74
2022/03/18 08:18:28;;;;;;;23.70;9.35;;;;;;;4.02;81.21;104096.75;4969699;28;20121;-74
2022/03/18 08:20:53;;;;;;;25.63;9.25;;;;;;;4.16;80.07;104097.72;4986126;28;20068;-74
2022/03/18 08:23:19;;;;;;;24.67;8.60;;;;;;;4.27;79.74;104107.56;4989583;28;20093;-75
2022/03/18 08:25:44;;;;;;;21.10;7.90;;;;;;;4.37;79.41;104094.28;4989224;28;20133;-74
2022/03/18 08:28:09;;;;;;;30.88;9.02;;;;;;;4.44;78.65;104099.66;4986004;28;20085;-74
2022/03/18 08:30:35;;;;;;;21.83;8.77;;;;;;;4.53;78.52;104095.25;4987669;28;20030;-74
2022/03/18 08:33:01;;;;;;;22.08;8.73;;;;;;;4.66;78.49;104096.19;4988471;28;20092;-74
2022/03/18 08:35:26;;;;;;;18.92;7.85;;;;;;;4.81;77.31;104118.47;4988936;28;20037;-74
2022/03/18 08:37:57;;;;;;;21.95;8.43;;;;;;;4.92;76.48;104119.41;4989210;28;20109;-74
2022/03/18 08:40:24;;;;;;;22.42;7.75;;;;;;;5.00;76.38;104116.75;4973830;28;20034;-74
2022/03/18 08:42:50;;;;;;;27.05;8.35;;;;;;;5.13;75.27;104118.56;4969968;28;20462;-74
2022/03/18 08:45:18;;;;;;;22.02;6.82;;;;;;;5.24;74.70;104114.13;4973174;28;20041;-74
2022/03/18 08:47:44;;;;;;;24.45;7.57;;;;;;;5.30;74.19;104112.34;4989645;28;20439;-74
2022/03/18 08:50:10;;;;;;;23.45;8.13;;;;;;;5.36;74.45;104123.94;4988913;28;20118;-74
2022/03/18 08:52:36;;;;;;;21.35;7.75;;;;;;;5.42;73.20;104129.28;4989388;28;20121;-74
2022/03/18 08:55:01;;;;;;;23.42;7.85;;;;;;;5.45;73.63;104131.06;4989800;28;20897;-74
2022/03/18 08:57:28;;;;;;;23.70;7.88;;;;;;;5.52;72.20;104143.53;4989108;28;20505;-74
2022/03/18 08:59:54;;;;;;;19.70;7.28;;;;;;;5.67;72.67;104144.44;4989314;28;20365;-74
2022/03/18 09:02:20;;;;;;;20.10;7.22;;;;;;;5.79;71.33;104149.75;4988888;28;20036;-74
2022/03/18 09:04:48;;;;;;;20.77;8.02;;;;;;;5.87;72.71;104137.31;4992349;28;20097;-74
2022/03/18 09:07:13;;;;;;;21.85;7.50;;;;;;;6.00;69.53;104148.00;4993377;28;20493;-74
2022/03/18 09:09:38;;;;;;;20.95;7.22;;;;;;;6.11;70.13;104151.56;4991443;28;20061;-74
2022/03/18 09:12:04;;;;;;;23.33;6.60;;;;;;;6.25;66.87;104155.09;4993013;28;20045;-74
2022/03/18 09:14:29;;;;;;;21.63;7.10;;;;;;;6.37;66.52;104153.25;4992884;28;20027;-74
2022/03/18 09:16:54;;;;;;;20.42;6.70;;;;;;;6.44;65.91;104155.94;4987908;28;20375;-74
2022/03/18 09:19:20;;;;;;;18.20;5.72;;;;;;;6.51;65.40;104162.13;4980668;28;20049;-74
2022/03/18 09:21:45;;;;;;;17.73;6.18;;;;;;;6.60;68.26;104164.81;4979865;28;20038;-74
2022/03/18 09:24:10;;;;;;;16.42;5.55;;;;;;;6.69;66.10;104158.53;4981185;28;20074;-74
2022/03/18 09:26:37;;;;;;;18.40;5.43;;;;;;;6.74;64.28;104170.09;4981886;28;20113;-74
2022/03/18 09:29:02;;;;;;;15.50;5.70;;;;;;;6.82;66.05;104162.03;4978924;28;20038;-74
2022/03/18 09:31:27;;;;;;;21.35;6.70;;;;;;;6.90;65.93;104165.56;4992370;28;20445;-75
2022/03/18 09:33:53;;;;;;;18.45;5.88;;;;;;;6.95;66.47;104170.91;4992890;28;20060;-75
2022/03/18 09:36:18;;;;;;;17.13;5.78;;;;;;;6.98;63.69;104173.56;4975084;28;20030;-75
2022/03/18 09:38:48;;;;;;;21.02;5.93;;;;;;;7.06;62.75;104181.53;4989343;28;20026;-75
2022/03/18 09:41:14;;;;;;;18.67;5.55;;;;;;;7.11;63.68;104171.72;4992590;28;20033;-75
2022/03/18 09:43:40;;;;;;;21.30;6.25;;;;;;;7.17;64.74;104169.91;4992300;28;20057;-76
2022/03/18 09:46:09;;;;;;;21.92;7.60;;;;;;;7.22;66.78;104172.56;4992091;28;20026;-75
2022/03/18 09:48:35;;;;;;;18.02;6.28;;;;;;;7.26;66.01;104177.00;4993070;28;20038;-75
2022/03/18 09:51:00;;;;;;;16.85;5.75;;;;;;;7.34;62.18;104175.13;4992821;28;20026;-76
2022/03/18 09:53:26;;;;;;;20.80;6.10;;;;;;;7.44;61.62;104175.09;4991606;28;20026;-74
2022/03/18 09:55:52;;;;;;;14.77;4.90;;;;;;;7.59;60.33;104176.78;4990174;28;20557;-75
2022/03/18 09:58:18;;;;;;;23.92;5.25;;;;;;;7.69;58.55;104179.38;4991250;28;20031;-74
2022/03/18 10:00:45;;;;;;;13.50;4.55;;;;;;;7.76;57.82;104180.22;4990719;28;20045;-75
2022/03/18 10:03:19;;;;;;;14.32;4.95;;;;;;;7.82;58.44;104180.16;4991527;28;20037;-75
2022/03/18 10:06:00;;;;;;;16.17;4.47;;;;;;;7.91;57.96;104189.91;4992066;28;20018;-74
2022/03/18 10:08:52;;;;;;;15.55;4.65;;;;;;;7.94;57.98;104189.88;4991057;28;20030;-78
2022/03/18 10:11:23;;;;;;;15.32;4.70;;;;;;;8.04;57.37;104194.25;4991508;28;20038;-76
2022/03/18 10:13:52;;;;;;;12.02;4.38;;;;;;;8.08;57.87;104188.88;4991957;28;20026;-75
2022/03/18 10:16:29;;;;;;;14.30;4.10;;;;;;;8.11;58.67;104192.44;4991722;28;20530;-75
2022/03/18 10:18:54;;;;;;;15.85;4.78;;;;;;;8.20;57.30;104195.00;4992781;28;20018;-75
2022/03/18 10:21:19;;;;;;;13.27;4.10;;;;;;;8.29;55.47;104195.84;4992254;28;20049;-75
2022/03/18 10:23:46;;;;;;;17.02;4.72;;;;;;;8.33;57.23;104201.16;4991651;28;20122;-75
2022/03/18 10:26:14;;;;;;;14.93;4.53;;;;;;;8.38;56.77;104199.28;4992400;28;20026;-75
2022/03/18 10:28:41;;;;;;;16.05;4.57;;;;;;;8.40;57.15;104189.47;4989967;28;20465;-75
2022/03/18 10:31:21;;;;;;;13.88;4.80;;;;;;;8.47;58.05;104192.09;4990288;28;20033;-75
2022/03/18 10:39:40;;;;;;;14.13;4.03;;;;;;;8.68;56.75;104199.00;4972899;28;20150;-75
2022/03/18 10:42:13;;;;;;;15.85;4.65;;;;;;;8.76;56.06;104196.25;4972836;28;20050;-75
2022/03/18 10:44:59;;;;;;;12.27;4.57;;;;;;;8.85;56.63;104190.78;4972854;28;20044;-75
2022/03/18 10:47:28;;;;;;;14.02;4.07;;;;;;;8.99;56.68;104193.25;4970947;28;20470;-75
2022/03/18 10:50:13;;;;;;;13.88;4.00;;;;;;;9.02;55.53;104191.44;4973192;28;20034;-75
2022/03/18 10:53:01;;;;;;;17.40;4.72;;;;;;;9.04;55.12;104192.31;4989264;28;20030;-75
2022/03/18 10:55:34;;;;;;;12.23;3.92;;;;;;;9.09;55.55;104201.19;4991391;28;20058;-75
2022/03/18 10:58:03;;;;;;;9.90;3.40;;;;;;;9.18;55.46;104188.53;4987580;28;20042;-75
2022/03/18 11:00:34;;;;;;;12.90;3.95;;;;;;;9.20;55.37;104193.00;4977246;28;20049;-76
2022/03/18 11:03:01;;;;;;;16.20;4.20;;;;;;;9.25;54.10;104188.47;4982885;28;20057;-76
2022/03/18 11:05:35;;;;;;;14.60;3.65;;;;;;;9.30;56.26;104193.75;4979465;28;20022;-77
2022/03/18 11:08:03;;;;;;;16.00;4.07;;;;;;;9.39;53.79;104188.25;4972650;28;20035;-78
2022/03/18 11:13:15;;;;;;;14.45;3.80;;;;;;;9.50;55.07;104187.19;4972093;28;20062;-77
2022/03/18 11:15:43;;;;;;;15.85;3.90;;;;;;;9.56;53.98;104177.25;4979196;28;20662;-77
2022/03/18 11:18:11;;;;;;;14.60;4.32;;;;;;;9.60;53.69;104180.78;4986019;28;20049;-77
2022/03/18 11:20:42;;;;;;;13.50;4.10;;;;;;;9.68;54.30;104178.88;4991445;28;20474;-76
2022/03/18 11:23:17;;;;;;;18.00;5.13;;;;;;;9.72;55.23;104175.22;4987743;28;20474;-77
2022/03/18 11:25:49;;;;;;;12.85;3.92;;;;;;;9.73;54.43;104174.28;4981303;28;20455;-75
2022/03/18 11:28:18;;;;;;;14.40;4.32;;;;;;;9.78;54.20;104180.50;4986609;28;20037;-76
2022/03/18 11:30:45;;;;;;;14.25;4.50;;;;;;;9.79;52.55;104182.28;4989570;28;20034;-75
2022/03/18 11:33:10;;;;;;;13.10;4.32;;;;;;;9.86;52.81;104188.41;5000075;28;20034;-75
2022/03/18 11:35:48;;;;;;;16.38;4.07;;;;;;;9.89;55.14;104179.41;4990117;28;20389;-75
2022/03/18 11:38:14;;;;;;;15.52;4.13;;;;;;;10.06;53.35;104173.75;4987658;28;20030;-75
2022/03/18 11:40:57;;;;;;;17.00;4.43;;;;;;;10.15;52.74;104174.47;4987589;28;20022;-75